sensor_id;sensor_type;location;lat;lon;timestamp;P1;durP1;ratioP1;P2;durP2;ratioP2
35961;SDS011;22044;48.298;10.008;2023-07-13T00:02:32;13.68;;;8.18;;
35961;SDS011;22044;48.298;10.008;2023-07-13T00:05:21;15.57;;;7.93;;
35961;SDS011;22044;48.298;10.008;2023-07-13T00:08:07;10.13;;;7.10;;
35961;SDS011;22044;48.298;10.008;2023-07-13T00:10:55;10.07;;;7.32;;
35961;SDS011;22044;48.298;10.008;2023-07-13T00:13:42;12.05;;;8.45;;
35961;SDS011;22044;48.298;10.008;2023-07-13T00:16:29;8.05;;;7.22;;
35961;SDS011;22044;48.298;10.008;2023-07-13T00:19:16;13.45;;;7.97;;
35961;SDS011;22044;48.298;10.008;2023-07-13T00:22:02;15.52;;;9.27;;
35961;SDS011;22044;48.298;10.008;2023-07-13T00:24:48;12.68;;;8.52;;
35961;SDS011;22044;48.298;10.008;2023-07-13T00:27:35;8.57;;;6.57;;
35961;SDS011;22044;48.298;10.008;2023-07-13T00:30:24;4.55;;;3.72;;
35961;SDS011;22044;48.298;10.008;2023-07-13T00:33:10;7.32;;;3.72;;
35961;SDS011;22044;48.298;10.008;2023-07-13T00:35:55;4.95;;;3.92;;
35961;SDS011;22044;48.298;10.008;2023-07-13T00:38:43;4.93;;;3.90;;
35961;SDS011;22044;48.298;10.008;2023-07-13T00:41:29;5.20;;;4.37;;
35961;SDS011;22044;48.298;10.008;2023-07-13T00:44:15;4.83;;;4.37;;
35961;SDS011;22044;48.298;10.008;2023-07-13T00:47:03;5.90;;;4.97;;
35961;SDS011;22044;48.298;10.008;2023-07-13T00:49:50;11.90;;;5.00;;
35961;SDS011;22044;48.298;10.008;2023-07-13T00:52:36;4.50;;;3.80;;
35961;SDS011;22044;48.298;10.008;2023-07-13T00:55:25;5.18;;;4.18;;
35961;SDS011;22044;48.298;10.008;2023-07-13T00:58:10;4.65;;;3.85;;
35961;SDS011;22044;48.298;10.008;2023-07-13T01:00:56;4.10;;;3.30;;
35961;SDS011;22044;48.298;10.008;2023-07-13T01:03:43;5.65;;;4.03;;
35961;SDS011;22044;48.298;10.008;2023-07-13T01:06:31;5.68;;;4.07;;
35961;SDS011;22044;48.298;10.008;2023-07-13T01:09:17;5.90;;;4.15;;
35961;SDS011;22044;48.298;10.008;2023-07-13T01:12:05;4.87;;;3.53;;
35961;SDS011;22044;48.298;10.008;2023-07-13T01:14:56;5.85;;;3.40;;
35961;SDS011;22044;48.298;10.008;2023-07-13T01:17:43;6.43;;;3.77;;
35961;SDS011;22044;48.298;10.008;2023-07-13T01:20:31;4.43;;;3.90;;
35961;SDS011;22044;48.298;10.008;2023-07-13T01:23:22;6.03;;;3.73;;
35961;SDS011;22044;48.298;10.008;2023-07-13T01:26:08;6.87;;;3.80;;
35961;SDS011;22044;48.298;10.008;2023-07-13T01:28:55;8.53;;;3.97;;
35961;SDS011;22044;48.298;10.008;2023-07-13T01:31:41;4.17;;;3.60;;
35961;SDS011;22044;48.298;10.008;2023-07-13T01:34:28;6.37;;;3.67;;
35961;SDS011;22044;48.298;10.008;2023-07-13T01:37:13;3.10;;;2.83;;
35961;SDS011;22044;48.298;10.008;2023-07-13T01:40:00;4.20;;;2.90;;
35961;SDS011;22044;48.298;10.008;2023-07-13T01:42:48;4.07;;;2.80;;
35961;SDS011;22044;48.298;10.008;2023-07-13T01:45:37;7.40;;;3.27;;
35961;SDS011;22044;48.298;10.008;2023-07-13T01:48:22;5.93;;;3.23;;
35961;SDS011;22044;48.298;10.008;2023-07-13T01:51:08;3.50;;;3.20;;
35961;SDS011;22044;48.298;10.008;2023-07-13T01:53:54;5.47;;;3.30;;
35961;SDS011;22044;48.298;10.008;2023-07-13T01:56:41;5.20;;;3.77;;
35961;SDS011;22044;48.298;10.008;2023-07-13T01:59:27;6.57;;;3.85;;
35961;SDS011;22044;48.298;10.008;2023-07-13T02:02:12;8.30;;;3.60;;
35961;SDS011;22044;48.298;10.008;2023-07-13T02:04:58;4.47;;;3.37;;
35961;SDS011;22044;48.298;10.008;2023-07-13T02:07:44;4.00;;;3.43;;
35961;SDS011;22044;48.298;10.008;2023-07-13T02:10:29;8.00;;;3.77;;
35961;SDS011;22044;48.298;10.008;2023-07-13T02:13:16;6.03;;;3.30;;
35961;SDS011;22044;48.298;10.008;2023-07-13T02:16:02;6.10;;;3.70;;
35961;SDS011;22044;48.298;10.008;2023-07-13T02:18:47;7.30;;;3.10;;
35961;SDS011;22044;48.298;10.008;2023-07-13T02:21:36;5.70;;;3.40;;
35961;SDS011;22044;48.298;10.008;2023-07-13T02:24:21;5.80;;;3.27;;
35961;SDS011;22044;48.298;10.008;2023-07-13T02:27:07;7.20;;;3.07;;
35961;SDS011;22044;48.298;10.008;2023-07-13T02:29:54;5.50;;;3.47;;
35961;SDS011;22044;48.298;10.008;2023-07-13T02:32:39;5.23;;;3.07;;
35961;SDS011;22044;48.298;10.008;2023-07-13T02:35:25;7.63;;;3.67;;
35961;SDS011;22044;48.298;10.008;2023-07-13T02:38:10;5.33;;;3.33;;
35961;SDS011;22044;48.298;10.008;2023-07-13T02:40:56;4.83;;;3.03;;
35961;SDS011;22044;48.298;10.008;2023-07-13T02:43:42;6.63;;;3.43;;
35961;SDS011;22044;48.298;10.008;2023-07-13T02:46:28;4.47;;;3.30;;
35961;SDS011;22044;48.298;10.008;2023-07-13T02:49:14;9.27;;;3.90;;
35961;SDS011;22044;48.298;10.008;2023-07-13T02:52:00;4.70;;;3.30;;
35961;SDS011;22044;48.298;10.008;2023-07-13T02:54:46;5.57;;;2.90;;
35961;SDS011;22044;48.298;10.008;2023-07-13T02:57:31;3.63;;;2.87;;
35961;SDS011;22044;48.298;10.008;2023-07-13T03:00:17;7.50;;;3.43;;
35961;SDS011;22044;48.298;10.008;2023-07-13T03:03:04;6.70;;;2.97;;
35961;SDS011;22044;48.298;10.008;2023-07-13T03:05:57;22.90;;;4.57;;
35961;SDS011;22044;48.298;10.008;2023-07-13T03:08:48;5.03;;;3.10;;
35961;SDS011;22044;48.298;10.008;2023-07-13T03:11:34;7.93;;;3.87;;
35961;SDS011;22044;48.298;10.008;2023-07-13T03:14:42;9.53;;;3.87;;
35961;SDS011;22044;48.298;10.008;2023-07-13T03:17:28;3.07;;;2.53;;
35961;SDS011;22044;48.298;10.008;2023-07-13T03:20:15;5.83;;;3.27;;
35961;SDS011;22044;48.298;10.008;2023-07-13T03:23:01;6.90;;;3.10;;
35961;SDS011;22044;48.298;10.008;2023-07-13T03:25:47;7.37;;;3.30;;
35961;SDS011;22044;48.298;10.008;2023-07-13T03:28:33;5.10;;;2.60;;
35961;SDS011;22044;48.298;10.008;2023-07-13T03:31:21;5.53;;;2.90;;
35961;SDS011;22044;48.298;10.008;2023-07-13T03:34:12;5.43;;;3.20;;
35961;SDS011;22044;48.298;10.008;2023-07-13T03:36:59;6.40;;;2.80;;
35961;SDS011;22044;48.298;10.008;2023-07-13T03:39:46;4.37;;;3.00;;
35961;SDS011;22044;48.298;10.008;2023-07-13T03:42:33;7.63;;;2.97;;
35961;SDS011;22044;48.298;10.008;2023-07-13T03:45:18;7.87;;;3.17;;
35961;SDS011;22044;48.298;10.008;2023-07-13T03:48:04;6.47;;;2.60;;
35961;SDS011;22044;48.298;10.008;2023-07-13T03:50:50;4.90;;;2.50;;
35961;SDS011;22044;48.298;10.008;2023-07-13T03:53:38;6.70;;;3.03;;
35961;SDS011;22044;48.298;10.008;2023-07-13T03:56:25;5.47;;;2.60;;
35961;SDS011;22044;48.298;10.008;2023-07-13T03:59:11;9.50;;;2.37;;
35961;SDS011;22044;48.298;10.008;2023-07-13T04:01:57;7.40;;;2.90;;
35961;SDS011;22044;48.298;10.008;2023-07-13T04:04:42;8.47;;;2.80;;
35961;SDS011;22044;48.298;10.008;2023-07-13T04:07:28;6.20;;;2.87;;
35961;SDS011;22044;48.298;10.008;2023-07-13T04:10:15;6.93;;;2.93;;
35961;SDS011;22044;48.298;10.008;2023-07-13T04:13:01;5.17;;;2.77;;
35961;SDS011;22044;48.298;10.008;2023-07-13T04:15:46;8.20;;;3.00;;
35961;SDS011;22044;48.298;10.008;2023-07-13T04:18:32;6.17;;;2.50;;
35961;SDS011;22044;48.298;10.008;2023-07-13T04:21:17;5.57;;;2.77;;
35961;SDS011;22044;48.298;10.008;2023-07-13T04:24:03;9.13;;;3.10;;
35961;SDS011;22044;48.298;10.008;2023-07-13T04:26:51;9.33;;;3.27;;
35961;SDS011;22044;48.298;10.008;2023-07-13T04:29:36;6.40;;;3.37;;
35961;SDS011;22044;48.298;10.008;2023-07-13T04:32:22;4.87;;;3.20;;
35961;SDS011;22044;48.298;10.008;2023-07-13T04:35:08;7.77;;;3.30;;
35961;SDS011;22044;48.298;10.008;2023-07-13T04:37:53;8.27;;;3.20;;
35961;SDS011;22044;48.298;10.008;2023-07-13T04:40:39;9.57;;;3.90;;
35961;SDS011;22044;48.298;10.008;2023-07-13T04:43:26;4.73;;;3.17;;
35961;SDS011;22044;48.298;10.008;2023-07-13T04:46:13;5.23;;;2.87;;
35961;SDS011;22044;48.298;10.008;2023-07-13T04:49:01;12.40;;;3.10;;
35961;SDS011;22044;48.298;10.008;2023-07-13T04:51:47;7.80;;;3.30;;
35961;SDS011;22044;48.298;10.008;2023-07-13T04:54:33;6.17;;;2.77;;
35961;SDS011;22044;48.298;10.008;2023-07-13T04:57:19;7.90;;;2.93;;
35961;SDS011;22044;48.298;10.008;2023-07-13T05:00:06;9.30;;;3.20;;
35961;SDS011;22044;48.298;10.008;2023-07-13T05:02:54;5.60;;;3.17;;
35961;SDS011;22044;48.298;10.008;2023-07-13T05:05:39;6.57;;;3.10;;
35961;SDS011;22044;48.298;10.008;2023-07-13T05:08:25;9.93;;;3.10;;
35961;SDS011;22044;48.298;10.008;2023-07-13T05:11:11;6.80;;;3.23;;
35961;SDS011;22044;48.298;10.008;2023-07-13T05:13:56;4.90;;;2.77;;
35961;SDS011;22044;48.298;10.008;2023-07-13T05:16:43;4.87;;;3.10;;
35961;SDS011;22044;48.298;10.008;2023-07-13T05:19:29;6.70;;;3.33;;
35961;SDS011;22044;48.298;10.008;2023-07-13T05:22:15;7.37;;;2.90;;
35961;SDS011;22044;48.298;10.008;2023-07-13T05:25:01;7.70;;;3.00;;
35961;SDS011;22044;48.298;10.008;2023-07-13T05:27:46;6.07;;;2.90;;
35961;SDS011;22044;48.298;10.008;2023-07-13T05:30:32;4.20;;;2.83;;
35961;SDS011;22044;48.298;10.008;2023-07-13T05:33:19;6.93;;;2.87;;
35961;SDS011;22044;48.298;10.008;2023-07-13T05:36:05;5.03;;;2.80;;
35961;SDS011;22044;48.298;10.008;2023-07-13T05:38:51;6.03;;;2.87;;
35961;SDS011;22044;48.298;10.008;2023-07-13T05:41:36;8.10;;;2.97;;
35961;SDS011;22044;48.298;10.008;2023-07-13T05:44:22;5.50;;;3.07;;
35961;SDS011;22044;48.298;10.008;2023-07-13T05:47:08;4.23;;;2.97;;
35961;SDS011;22044;48.298;10.008;2023-07-13T05:49:55;5.60;;;2.87;;
35961;SDS011;22044;48.298;10.008;2023-07-13T05:52:40;6.53;;;2.90;;
35961;SDS011;22044;48.298;10.008;2023-07-13T05:55:26;4.17;;;3.30;;
35961;SDS011;22044;48.298;10.008;2023-07-13T05:58:12;6.73;;;2.73;;
35961;SDS011;22044;48.298;10.008;2023-07-13T06:00:59;4.50;;;2.80;;
35961;SDS011;22044;48.298;10.008;2023-07-13T06:03:45;6.80;;;3.17;;
35961;SDS011;22044;48.298;10.008;2023-07-13T06:06:33;7.53;;;3.20;;
35961;SDS011;22044;48.298;10.008;2023-07-13T06:09:18;9.90;;;2.90;;
35961;SDS011;22044;48.298;10.008;2023-07-13T06:12:04;3.63;;;2.63;;
35961;SDS011;22044;48.298;10.008;2023-07-13T06:14:50;5.23;;;2.70;;
35961;SDS011;22044;48.298;10.008;2023-07-13T06:17:36;6.77;;;2.30;;
35961;SDS011;22044;48.298;10.008;2023-07-13T06:20:21;4.30;;;2.50;;
35961;SDS011;22044;48.298;10.008;2023-07-13T06:23:09;4.23;;;2.30;;
35961;SDS011;22044;48.298;10.008;2023-07-13T06:25:54;5.00;;;2.37;;
35961;SDS011;22044;48.298;10.008;2023-07-13T06:28:40;4.53;;;2.30;;
35961;SDS011;22044;48.298;10.008;2023-07-13T06:31:25;2.57;;;2.00;;
35961;SDS011;22044;48.298;10.008;2023-07-13T06:34:11;6.30;;;3.00;;
35961;SDS011;22044;48.298;10.008;2023-07-13T06:36:57;3.60;;;2.10;;
35961;SDS011;22044;48.298;10.008;2023-07-13T06:39:44;2.83;;;1.90;;
35961;SDS011;22044;48.298;10.008;2023-07-13T06:42:29;3.03;;;2.20;;
35961;SDS011;22044;48.298;10.008;2023-07-13T06:45:15;3.45;;;1.90;;
35961;SDS011;22044;48.298;10.008;2023-07-13T06:48:00;2.60;;;2.15;;
35961;SDS011;22044;48.298;10.008;2023-07-13T06:50:47;2.50;;;1.92;;
35961;SDS011;22044;48.298;10.008;2023-07-13T06:53:34;2.40;;;1.67;;
35961;SDS011;22044;48.298;10.008;2023-07-13T06:56:21;3.03;;;1.93;;
35961;SDS011;22044;48.298;10.008;2023-07-13T06:59:07;3.53;;;2.00;;
35961;SDS011;22044;48.298;10.008;2023-07-13T07:01:53;3.43;;;2.23;;
35961;SDS011;22044;48.298;10.008;2023-07-13T07:04:38;6.20;;;2.27;;
35961;SDS011;22044;48.298;10.008;2023-07-13T07:07:24;3.53;;;2.30;;
35961;SDS011;22044;48.298;10.008;2023-07-13T07:10:09;2.35;;;1.88;;
35961;SDS011;22044;48.298;10.008;2023-07-13T07:12:56;5.95;;;2.92;;
35961;SDS011;22044;48.298;10.008;2023-07-13T07:15:42;6.50;;;2.23;;
35961;SDS011;22044;48.298;10.008;2023-07-13T07:18:28;3.17;;;1.60;;
35961;SDS011;22044;48.298;10.008;2023-07-13T07:21:13;3.75;;;2.17;;
35961;SDS011;22044;48.298;10.008;2023-07-13T07:23:59;3.65;;;2.17;;
35961;SDS011;22044;48.298;10.008;2023-07-13T07:26:47;3.22;;;2.00;;
35961;SDS011;22044;48.298;10.008;2023-07-13T07:29:34;3.45;;;1.85;;
35961;SDS011;22044;48.298;10.008;2023-07-13T07:32:19;6.57;;;2.22;;
35961;SDS011;22044;48.298;10.008;2023-07-13T07:35:05;2.95;;;1.95;;
35961;SDS011;22044;48.298;10.008;2023-07-13T07:37:51;3.53;;;2.20;;
35961;SDS011;22044;48.298;10.008;2023-07-13T07:40:37;3.75;;;2.10;;
35961;SDS011;22044;48.298;10.008;2023-07-13T07:43:23;4.22;;;2.15;;
35961;SDS011;22044;48.298;10.008;2023-07-13T07:46:11;4.80;;;2.10;;
35961;SDS011;22044;48.298;10.008;2023-07-13T07:48:56;5.65;;;2.10;;
35961;SDS011;22044;48.298;10.008;2023-07-13T07:51:42;2.70;;;2.03;;
35961;SDS011;22044;48.298;10.008;2023-07-13T07:54:27;4.07;;;2.10;;
35961;SDS011;22044;48.298;10.008;2023-07-13T07:57:13;5.50;;;2.33;;
35961;SDS011;22044;48.298;10.008;2023-07-13T07:59:58;2.17;;;1.73;;
35961;SDS011;22044;48.298;10.008;2023-07-13T08:02:45;4.82;;;2.15;;
35961;SDS011;22044;48.298;10.008;2023-07-13T08:05:31;5.85;;;2.20;;
35961;SDS011;22044;48.298;10.008;2023-07-13T08:08:19;3.28;;;2.20;;
35961;SDS011;22044;48.298;10.008;2023-07-13T08:11:06;2.80;;;1.88;;
35961;SDS011;22044;48.298;10.008;2023-07-13T08:13:53;4.15;;;2.00;;
35961;SDS011;22044;48.298;10.008;2023-07-13T08:16:39;4.87;;;2.17;;
35961;SDS011;22044;48.298;10.008;2023-07-13T08:19:26;4.28;;;2.50;;
35961;SDS011;22044;48.298;10.008;2023-07-13T08:22:11;3.78;;;1.92;;
35961;SDS011;22044;48.298;10.008;2023-07-13T08:24:57;3.22;;;2.10;;
35961;SDS011;22044;48.298;10.008;2023-07-13T08:27:43;2.65;;;1.70;;
35961;SDS011;22044;48.298;10.008;2023-07-13T08:30:29;3.72;;;1.80;;
35961;SDS011;22044;48.298;10.008;2023-07-13T08:33:14;4.50;;;2.00;;
35961;SDS011;22044;48.298;10.008;2023-07-13T08:36:01;3.25;;;1.80;;
35961;SDS011;22044;48.298;10.008;2023-07-13T08:38:49;2.13;;;1.85;;
35961;SDS011;22044;48.298;10.008;2023-07-13T08:41:35;4.15;;;1.90;;
35961;SDS011;22044;48.298;10.008;2023-07-13T08:44:23;3.63;;;2.00;;
35961;SDS011;22044;48.298;10.008;2023-07-13T08:47:14;4.18;;;1.90;;
35961;SDS011;22044;48.298;10.008;2023-07-13T08:50:01;1.70;;;1.52;;
35961;SDS011;22044;48.298;10.008;2023-07-13T08:52:49;2.55;;;1.75;;
35961;SDS011;22044;48.298;10.008;2023-07-13T08:55:35;3.80;;;2.20;;
35961;SDS011;22044;48.298;10.008;2023-07-13T08:58:23;7.82;;;2.25;;
35961;SDS011;22044;48.298;10.008;2023-07-13T09:01:13;3.97;;;1.80;;
35961;SDS011;22044;48.298;10.008;2023-07-13T09:04:05;8.63;;;2.20;;
35961;SDS011;22044;48.298;10.008;2023-07-13T09:06:58;4.00;;;1.95;;
35961;SDS011;22044;48.298;10.008;2023-07-13T09:09:55;4.97;;;2.13;;
35961;SDS011;22044;48.298;10.008;2023-07-13T09:12:52;3.17;;;1.90;;
35961;SDS011;22044;48.298;10.008;2023-07-13T09:15:48;2.75;;;1.80;;
35961;SDS011;22044;48.298;10.008;2023-07-13T09:18:36;2.80;;;1.90;;
35961;SDS011;22044;48.298;10.008;2023-07-13T09:21:25;3.17;;;2.00;;
35961;SDS011;22044;48.298;10.008;2023-07-13T09:24:24;2.78;;;1.77;;
35961;SDS011;22044;48.298;10.008;2023-07-13T09:27:15;3.88;;;1.70;;
35961;SDS011;22044;48.298;10.008;2023-07-13T09:30:11;5.47;;;1.98;;
35961;SDS011;22044;48.298;10.008;2023-07-13T09:33:09;2.88;;;1.70;;
35961;SDS011;22044;48.298;10.008;2023-07-13T09:35:54;2.85;;;1.73;;
35961;SDS011;22044;48.298;10.008;2023-07-13T09:38:41;3.58;;;1.77;;
35961;SDS011;22044;48.298;10.008;2023-07-13T09:41:27;3.22;;;1.65;;
35961;SDS011;22044;48.298;10.008;2023-07-13T09:44:27;3.08;;;1.33;;
35961;SDS011;22044;48.298;10.008;2023-07-13T09:47:15;3.20;;;1.50;;
35961;SDS011;22044;48.298;10.008;2023-07-13T09:50:02;5.38;;;1.60;;
35961;SDS011;22044;48.298;10.008;2023-07-13T09:52:50;3.35;;;1.70;;
35961;SDS011;22044;48.298;10.008;2023-07-13T09:55:38;1.98;;;1.38;;
35961;SDS011;22044;48.298;10.008;2023-07-13T09:58:26;3.05;;;1.67;;
35961;SDS011;22044;48.298;10.008;2023-07-13T10:01:17;2.58;;;1.63;;
35961;SDS011;22044;48.298;10.008;2023-07-13T10:04:18;3.15;;;1.55;;
35961;SDS011;22044;48.298;10.008;2023-07-13T10:07:04;2.92;;;1.50;;
35961;SDS011;22044;48.298;10.008;2023-07-13T10:09:52;2.58;;;1.40;;
35961;SDS011;22044;48.298;10.008;2023-07-13T10:12:39;2.67;;;1.65;;
35961;SDS011;22044;48.298;10.008;2023-07-13T10:15:24;3.42;;;1.40;;
35961;SDS011;22044;48.298;10.008;2023-07-13T10:18:12;4.43;;;1.63;;
35961;SDS011;22044;48.298;10.008;2023-07-13T10:21:00;4.43;;;1.83;;
35961;SDS011;22044;48.298;10.008;2023-07-13T10:23:55;4.20;;;1.63;;
35961;SDS011;22044;48.298;10.008;2023-07-13T10:26:52;5.28;;;1.85;;
35961;SDS011;22044;48.298;10.008;2023-07-13T10:29:43;5.05;;;1.85;;
35961;SDS011;22044;48.298;10.008;2023-07-13T10:32:33;3.00;;;1.60;;
35961;SDS011;22044;48.298;10.008;2023-07-13T10:35:20;26.45;;;7.38;;
35961;SDS011;22044;48.298;10.008;2023-07-13T10:38:10;4.47;;;1.90;;
35961;SDS011;22044;48.298;10.008;2023-07-13T10:40:59;4.57;;;2.10;;
35961;SDS011;22044;48.298;10.008;2023-07-13T10:43:49;3.50;;;1.58;;
35961;SDS011;22044;48.298;10.008;2023-07-13T10:46:37;5.63;;;2.00;;
35961;SDS011;22044;48.298;10.008;2023-07-13T10:49:23;8.13;;;1.70;;
35961;SDS011;22044;48.298;10.008;2023-07-13T10:55:33;3.88;;;1.85;;
35961;SDS011;22044;48.298;10.008;2023-07-13T10:58:27;1.92;;;1.58;;
35961;SDS011;22044;48.298;10.008;2023-07-13T11:01:16;14.40;;;2.30;;
35961;SDS011;22044;48.298;10.008;2023-07-13T11:04:03;4.40;;;1.77;;
35961;SDS011;22044;48.298;10.008;2023-07-13T11:06:50;6.07;;;1.90;;
35961;SDS011;22044;48.298;10.008;2023-07-13T11:09:39;5.18;;;1.73;;
35961;SDS011;22044;48.298;10.008;2023-07-13T11:12:51;2.95;;;1.58;;
35961;SDS011;22044;48.298;10.008;2023-07-13T11:15:43;3.83;;;2.17;;
35961;SDS011;22044;48.298;10.008;2023-07-13T11:18:29;2.88;;;1.73;;
35961;SDS011;22044;48.298;10.008;2023-07-13T11:21:15;6.07;;;2.30;;
35961;SDS011;22044;48.298;10.008;2023-07-13T11:24:03;3.17;;;1.65;;
35961;SDS011;22044;48.298;10.008;2023-07-13T11:26:51;4.47;;;2.00;;
35961;SDS011;22044;48.298;10.008;2023-07-13T11:29:37;4.28;;;1.80;;
35961;SDS011;22044;48.298;10.008;2023-07-13T11:32:24;4.55;;;2.10;;
35961;SDS011;22044;48.298;10.008;2023-07-13T11:35:17;4.78;;;2.03;;
35961;SDS011;22044;48.298;10.008;2023-07-13T11:38:10;2.88;;;1.58;;
35961;SDS011;22044;48.298;10.008;2023-07-13T11:41:01;4.43;;;2.05;;
35961;SDS011;22044;48.298;10.008;2023-07-13T11:43:53;3.75;;;1.90;;
35961;SDS011;22044;48.298;10.008;2023-07-13T11:46:43;2.88;;;1.80;;
35961;SDS011;22044;48.298;10.008;2023-07-13T11:49:31;5.07;;;1.52;;
35961;SDS011;22044;48.298;10.008;2023-07-13T11:52:27;2.90;;;1.63;;
35961;SDS011;22044;48.298;10.008;2023-07-13T11:55:22;3.47;;;2.03;;
35961;SDS011;22044;48.298;10.008;2023-07-13T11:58:10;2.47;;;1.80;;
35961;SDS011;22044;48.298;10.008;2023-07-13T12:00:59;2.25;;;1.52;;
35961;SDS011;22044;48.298;10.008;2023-07-13T12:03:48;2.33;;;1.85;;
35961;SDS011;22044;48.298;10.008;2023-07-13T12:06:36;2.50;;;1.73;;
35961;SDS011;22044;48.298;10.008;2023-07-13T12:09:26;3.63;;;1.80;;
35961;SDS011;22044;48.298;10.008;2023-07-13T12:12:13;3.17;;;1.67;;
35961;SDS011;22044;48.298;10.008;2023-07-13T12:15:06;4.40;;;2.00;;
35961;SDS011;22044;48.298;10.008;2023-07-13T12:17:54;2.92;;;1.55;;
35961;SDS011;22044;48.298;10.008;2023-07-13T12:20:41;5.18;;;1.67;;
35961;SDS011;22044;48.298;10.008;2023-07-13T12:23:28;2.60;;;1.65;;
35961;SDS011;22044;48.298;10.008;2023-07-13T12:26:16;6.70;;;1.88;;
35961;SDS011;22044;48.298;10.008;2023-07-13T12:29:05;2.40;;;1.58;;
35961;SDS011;22044;48.298;10.008;2023-07-13T12:31:51;5.68;;;2.00;;
35961;SDS011;22044;48.298;10.008;2023-07-13T12:34:49;2.92;;;1.75;;
35961;SDS011;22044;48.298;10.008;2023-07-13T12:37:37;6.18;;;1.90;;
35961;SDS011;22044;48.298;10.008;2023-07-13T12:40:27;2.65;;;2.17;;
35961;SDS011;22044;48.298;10.008;2023-07-13T12:43:17;3.88;;;1.73;;
35961;SDS011;22044;48.298;10.008;2023-07-13T12:46:14;3.50;;;1.60;;
35961;SDS011;22044;48.298;10.008;2023-07-13T12:49:04;3.80;;;1.85;;
35961;SDS011;22044;48.298;10.008;2023-07-13T12:51:56;5.10;;;2.00;;
35961;SDS011;22044;48.298;10.008;2023-07-13T12:54:52;2.70;;;1.60;;
35961;SDS011;22044;48.298;10.008;2023-07-13T12:57:41;2.85;;;1.77;;
35961;SDS011;22044;48.298;10.008;2023-07-13T13:00:30;5.47;;;1.95;;
35961;SDS011;22044;48.298;10.008;2023-07-13T13:03:20;3.42;;;1.90;;
35961;SDS011;22044;48.298;10.008;2023-07-13T13:06:20;3.55;;;2.10;;
35961;SDS011;22044;48.298;10.008;2023-07-13T13:09:11;2.95;;;1.70;;
35961;SDS011;22044;48.298;10.008;2023-07-13T13:11:58;3.80;;;1.80;;
35961;SDS011;22044;48.298;10.008;2023-07-13T13:14:44;3.35;;;2.10;;
35961;SDS011;22044;48.298;10.008;2023-07-13T13:17:32;3.72;;;1.73;;
35961;SDS011;22044;48.298;10.008;2023-07-13T13:20:19;7.18;;;1.88;;
35961;SDS011;22044;48.298;10.008;2023-07-13T13:23:07;3.13;;;1.80;;
35961;SDS011;22044;48.298;10.008;2023-07-13T13:25:57;2.40;;;1.55;;
35961;SDS011;22044;48.298;10.008;2023-07-13T13:28:43;5.38;;;1.80;;
35961;SDS011;22044;48.298;10.008;2023-07-13T13:31:28;2.42;;;1.90;;
35961;SDS011;22044;48.298;10.008;2023-07-13T13:34:15;2.25;;;1.60;;
35961;SDS011;22044;48.298;10.008;2023-07-13T13:37:02;3.67;;;1.88;;
35961;SDS011;22044;48.298;10.008;2023-07-13T13:39:49;3.20;;;1.75;;
35961;SDS011;22044;48.298;10.008;2023-07-13T13:42:38;2.95;;;1.67;;
35961;SDS011;22044;48.298;10.008;2023-07-13T13:45:24;2.63;;;1.77;;
35961;SDS011;22044;48.298;10.008;2023-07-13T13:48:13;1.48;;;1.38;;
35961;SDS011;22044;48.298;10.008;2023-07-13T13:51:00;4.15;;;2.08;;
35961;SDS011;22044;48.298;10.008;2023-07-13T13:53:51;3.35;;;1.67;;
35961;SDS011;22044;48.298;10.008;2023-07-13T13:56:37;5.32;;;1.52;;
35961;SDS011;22044;48.298;10.008;2023-07-13T13:59:24;4.13;;;1.75;;
35961;SDS011;22044;48.298;10.008;2023-07-13T14:02:15;4.07;;;1.65;;
35961;SDS011;22044;48.298;10.008;2023-07-13T14:05:09;3.42;;;1.70;;
35961;SDS011;22044;48.298;10.008;2023-07-13T14:07:57;5.88;;;1.88;;
35961;SDS011;22044;48.298;10.008;2023-07-13T14:10:44;5.38;;;1.85;;
35961;SDS011;22044;48.298;10.008;2023-07-13T14:13:31;2.95;;;1.55;;
35961;SDS011;22044;48.298;10.008;2023-07-13T14:16:23;2.78;;;1.88;;
35961;SDS011;22044;48.298;10.008;2023-07-13T14:19:13;3.90;;;1.60;;
35961;SDS011;22044;48.298;10.008;2023-07-13T14:21:59;1.70;;;1.40;;
35961;SDS011;22044;48.298;10.008;2023-07-13T14:24:44;5.07;;;1.70;;
35961;SDS011;22044;48.298;10.008;2023-07-13T14:27:30;3.30;;;1.90;;
35961;SDS011;22044;48.298;10.008;2023-07-13T14:30:17;3.20;;;1.77;;
35961;SDS011;22044;48.298;10.008;2023-07-13T14:33:07;5.22;;;2.20;;
35961;SDS011;22044;48.298;10.008;2023-07-13T14:35:54;4.65;;;1.90;;
35961;SDS011;22044;48.298;10.008;2023-07-13T14:38:40;6.95;;;1.90;;
35961;SDS011;22044;48.298;10.008;2023-07-13T14:41:26;4.07;;;1.80;;
35961;SDS011;22044;48.298;10.008;2023-07-13T14:44:12;3.80;;;1.63;;
35961;SDS011;22044;48.298;10.008;2023-07-13T14:46:58;2.95;;;1.67;;
35961;SDS011;22044;48.298;10.008;2023-07-13T14:49:49;3.08;;;1.70;;
35961;SDS011;22044;48.298;10.008;2023-07-13T14:52:34;6.25;;;1.95;;
35961;SDS011;22044;48.298;10.008;2023-07-13T14:55:20;3.95;;;2.08;;
35961;SDS011;22044;48.298;10.008;2023-07-13T14:58:06;4.15;;;1.85;;
35961;SDS011;22044;48.298;10.008;2023-07-13T15:00:51;3.83;;;2.25;;
35961;SDS011;22044;48.298;10.008;2023-07-13T15:03:39;5.05;;;1.95;;
35961;SDS011;22044;48.298;10.008;2023-07-13T15:06:31;2.75;;;1.80;;
35961;SDS011;22044;48.298;10.008;2023-07-13T15:09:37;5.35;;;2.13;;
35961;SDS011;22044;48.298;10.008;2023-07-13T15:12:23;3.35;;;1.90;;
35961;SDS011;22044;48.298;10.008;2023-07-13T15:15:09;3.38;;;1.58;;
35961;SDS011;22044;48.298;10.008;2023-07-13T15:17:55;4.40;;;1.90;;
35961;SDS011;22044;48.298;10.008;2023-07-13T15:20:41;6.95;;;1.80;;
35961;SDS011;22044;48.298;10.008;2023-07-13T15:23:28;4.28;;;1.75;;
35961;SDS011;22044;48.298;10.008;2023-07-13T15:26:15;3.80;;;1.65;;
35961;SDS011;22044;48.298;10.008;2023-07-13T15:29:02;3.20;;;1.80;;
35961;SDS011;22044;48.298;10.008;2023-07-13T15:31:48;2.97;;;1.70;;
35961;SDS011;22044;48.298;10.008;2023-07-13T15:34:34;5.10;;;1.60;;
35961;SDS011;22044;48.298;10.008;2023-07-13T15:37:20;5.22;;;2.13;;
35961;SDS011;22044;48.298;10.008;2023-07-13T15:40:06;7.78;;;2.50;;
35961;SDS011;22044;48.298;10.008;2023-07-13T15:42:54;2.90;;;1.73;;
35961;SDS011;22044;48.298;10.008;2023-07-13T15:45:39;3.95;;;1.83;;
35961;SDS011;22044;48.298;10.008;2023-07-13T15:48:27;5.00;;;1.67;;
35961;SDS011;22044;48.298;10.008;2023-07-13T15:51:17;3.67;;;1.60;;
35961;SDS011;22044;48.298;10.008;2023-07-13T15:54:08;3.10;;;1.83;;
35961;SDS011;22044;48.298;10.008;2023-07-13T15:56:57;6.35;;;1.90;;
35961;SDS011;22044;48.298;10.008;2023-07-13T15:59:47;3.95;;;1.90;;
35961;SDS011;22044;48.298;10.008;2023-07-13T16:02:33;5.72;;;2.25;;
35961;SDS011;22044;48.298;10.008;2023-07-13T16:05:19;2.47;;;2.10;;
35961;SDS011;22044;48.298;10.008;2023-07-13T16:08:06;3.55;;;1.88;;
35961;SDS011;22044;48.298;10.008;2023-07-13T16:11:05;3.78;;;1.83;;
35961;SDS011;22044;48.298;10.008;2023-07-13T16:13:57;1.67;;;1.50;;
35961;SDS011;22044;48.298;10.008;2023-07-13T16:16:44;3.97;;;1.98;;
35961;SDS011;22044;48.298;10.008;2023-07-13T16:19:32;5.57;;;1.95;;
35961;SDS011;22044;48.298;10.008;2023-07-13T16:22:18;2.75;;;1.63;;
35961;SDS011;22044;48.298;10.008;2023-07-13T16:25:12;2.47;;;1.35;;
35961;SDS011;22044;48.298;10.008;2023-07-13T16:27:59;2.28;;;1.70;;
35961;SDS011;22044;48.298;10.008;2023-07-13T16:30:46;3.53;;;1.70;;
35961;SDS011;22044;48.298;10.008;2023-07-13T16:33:35;4.18;;;1.83;;
35961;SDS011;22044;48.298;10.008;2023-07-13T16:36:21;4.80;;;1.55;;
35961;SDS011;22044;48.298;10.008;2023-07-13T16:39:10;3.20;;;1.63;;